Time,TemperatureF,DewpointF,PressureIn,WindDirection,WindDirectionDegrees,WindSpeedMPH,WindSpeedGustMPH,Humidity,HourlyPrecipIn,Conditions,Clouds,dailyrainin,SoftwareType,DateUTC
2013-08-23 00:05:00,67.7,66.2,30.03,North,32767,0.0,0.0,95,0.00,,,0.00,Wunderground v.1.15,2013-08-23 04:05:00,
2013-08-23 00:09:00,67.6,66.1,30.03,North,32767,0.0,0.0,95,0.00,,,0.00,Wunderground v.1.15,2013-08-23 04:09:00,
2013-08-23 00:14:00,67.6,66.1,30.03,North,360,0.0,0.0,95,0.00,,,0.00,Wunderground v.1.15,2013-08-23 04:14:00,
2013-08-23 00:19:00,67.5,66.3,30.03,North,360,0.0,0.0,96,0.00,,,0.00,Wunderground v.1.15,2013-08-23 04:19:00,
2013-08-23 00:29:00,67.5,66.3,30.02,North,360,0.0,0.0,96,0.00,,,0.00,Wunderground v.1.15,2013-08-23 04:29:00,
2013-08-23 00:34:00,67.5,66.3,30.02,North,32767,0.0,0.0,96,0.00,,,0.00,Wunderground v.1.15,2013-08-23 04:34:00,
2013-08-23 00:39:00,67.4,66.2,30.02,North,360,0.0,0.0,96,0.00,,,0.00,Wunderground v.1.15,2013-08-23 04:39:00,
2013-08-23 00:44:00,67.4,66.2,30.02,North,360,0.0,0.0,96,0.00,,,0.00,Wunderground v.1.15,2013-08-23 04:44:00,
2013-08-23 00:54:00,67.2,66.0,30.02,North,32767,0.0,0.0,96,0.00,,,0.00,Wunderground v.1.15,2013-08-23 04:54:00,
2013-08-23 00:59:00,67.1,65.9,30.02,North,32767,0.0,0.0,96,0.00,,,0.00,Wunderground v.1.15,2013-08-23 04:59:00,
2013-08-23 01:04:00,67.1,65.9,30.02,North,32767,0.0,0.0,96,0.00,,,0.00,Wunderground v.1.15,2013-08-23 05:04:00,
2013-08-23 01:09:00,67.1,65.9,30.02,North,32767,0.0,0.0,96,0.00,,,0.00,Wunderground v.1.15,2013-08-23 05:09:00,
2013-08-23 01:19:00,67.0,66.1,30.01,North,32767,0.0,0.0,97,0.00,,,0.00,Wunderground v.1.15,2013-08-23 05:19:00,
2013-08-23 01:29:00,67.0,66.1,30.01,North,32767,0.0,0.0,97,0.00,,,0.00,Wunderground v.1.15,2013-08-23 05:29:00,
2013-08-23 01:34:00,67.0,66.1,30.01,North,32767,0.0,0.0,97,0.00,,,0.00,Wunderground v.1.15,2013-08-23 05:34:00,
2013-08-23 01:39:00,66.9,66.0,30.01,North,360,0.0,0.0,97,0.00,,,0.00,Wunderground v.1.15,2013-08-23 05:39:00,
2013-08-23 01:49:00,66.7,65.8,30.01,North,360,0.0,0.0,97,0.00,,,0.00,Wunderground v.1.15,2013-08-23 05:49:00,
2013-08-23 01:54:00,66.5,65.6,30.01,North,360,0.0,0.0,97,0.00,,,0.00,Wunderground v.1.15,2013-08-23 05:54:00,
2013-08-23 02:04:00,66.4,65.5,30.00,North,32767,0.0,0.0,97,0.00,,,0.00,Wunderground v.1.15,2013-08-23 06:04:00,
2013-08-23 02:14:00,66.3,65.4,30.00,North,32767,0.0,0.0,97,0.00,,,0.00,Wunderground v.1.15,2013-08-23 06:14:00,
2013-08-23 02:19:00,66.3,65.4,30.00,North,32767,0.0,0.0,97,0.00,,,0.00,Wunderground v.1.15,2013-08-23 06:19:00,
2013-08-23 02:24:00,66.3,65.4,29.99,North,360,0.0,0.0,97,0.00,,,0.00,Wunderground v.1.15,2013-08-23 06:24:00,
2013-08-23 02:29:00,66.3,65.4,29.99,North,360,0.0,0.0,97,0.00,,,0.00,Wunderground v.1.15,2013-08-23 06:29:00,
2013-08-23 02:39:00,66.2,65.3,29.99,North,360,0.0,0.0,97,0.00,,,0.00,Wunderground v.1.15,2013-08-23 06:39:00,
2013-08-23 02:44:00,66.1,65.2,29.99,North,32767,0.0,0.0,97,0.00,,,0.00,Wunderground v.1.15,2013-08-23 06:44:00,
2013-08-23 02:49:00,66.0,65.1,29.99,North,360,0.0,0.0,97,0.00,,,0.00,Wunderground v.1.15,2013-08-23 06:49:00,
2013-08-23 02:59:00,66.0,65.4,29.98,North,32767,0.0,0.0,98,0.00,,,0.00,Wunderground v.1.15,2013-08-23 06:59:00,
2013-08-23 03:05:00,66.0,65.4,29.98,North,32767,0.0,0.0,98,0.00,,,0.00,Wunderground v.1.15,2013-08-23 07:05:00,
2013-08-23 03:14:00,65.9,65.3,29.98,North,360,0.0,0.0,98,0.00,,,0.00,Wunderground v.1.15,2013-08-23 07:14:00,
2013-08-23 03:24:00,65.9,65.3,29.98,North,360,0.0,0.0,98,0.00,,,0.00,Wunderground v.1.15,2013-08-23 07:24:00,
2013-08-23 03:34:00,65.8,65.2,29.98,North,360,0.0,0.0,98,0.00,,,0.00,Wunderground v.1.15,2013-08-23 07:34:00,
2013-08-23 03:44:00,65.7,64.8,29.97,North,360,0.0,0.0,97,0.00,,,0.00,Wunderground v.1.15,2013-08-23 07:44:00,
2013-08-23 03:54:00,65.5,64.9,29.97,North,32767,0.0,0.0,98,0.00,,,0.00,Wunderground v.1.15,2013-08-23 07:54:00,
2013-08-23 04:04:00,65.3,64.7,29.97,North,32767,0.0,0.0,98,0.00,,,0.00,Wunderground v.1.15,2013-08-23 08:04:00,
2013-08-23 04:14:00,65.2,64.6,29.97,North,32767,0.0,0.0,98,0.00,,,0.00,Wunderground v.1.15,2013-08-23 08:14:00,
2013-08-23 04:19:00,65.1,64.5,29.97,North,32767,0.0,0.0,98,0.00,,,0.00,Wunderground v.1.15,2013-08-23 08:19:00,
2013-08-23 04:24:00,65.1,64.5,29.97,North,32767,0.0,0.0,98,0.00,,,0.00,Wunderground v.1.15,2013-08-23 08:24:00,
2013-08-23 04:29:00,65.0,64.4,29.98,North,360,0.0,0.0,98,0.00,,,0.00,Wunderground v.1.15,2013-08-23 08:29:00,
2013-08-23 04:39:00,65.0,64.4,29.97,North,360,0.0,0.0,98,0.00,,,0.00,Wunderground v.1.15,2013-08-23 08:39:00,
2013-08-23 04:49:00,65.0,64.4,29.98,North,360,0.0,0.0,98,0.00,,,0.00,Wunderground v.1.15,2013-08-23 08:49:00,
2013-08-23 04:54:00,65.0,64.4,29.98,North,360,0.0,0.0,98,0.00,,,0.00,Wunderground v.1.15,2013-08-23 08:54:00,
2013-08-23 05:05:00,65.0,64.4,29.98,North,32767,0.0,0.0,98,0.00,,,0.00,Wunderground v.1.15,2013-08-23 09:05:00,
2013-08-23 05:14:00,64.9,64.3,29.98,North,32767,0.0,0.0,98,0.00,,,0.00,Wunderground v.1.15,2013-08-23 09:14:00,
2013-08-23 05:19:00,64.9,64.3,29.98,North,32767,0.0,0.0,98,0.00,,,0.00,Wunderground v.1.15,2013-08-23 09:19:00,
2013-08-23 05:24:00,65.0,64.4,29.98,North,32767,0.0,0.0,98,0.00,,,0.00,Wunderground v.1.15,2013-08-23 09:24:00,
2013-08-23 05:29:00,65.0,64.4,29.98,North,32767,0.0,0.0,98,0.00,,,0.00,Wunderground v.1.15,2013-08-23 09:29:00,
2013-08-23 05:34:00,64.9,64.3,29.98,North,360,0.0,0.0,98,0.00,,,0.00,Wunderground v.1.15,2013-08-23 09:34:00,
2013-08-23 05:39:00,64.5,63.9,29.98,North,32767,0.0,0.0,98,0.00,,,0.00,Wunderground v.1.15,2013-08-23 09:39:00,
2013-08-23 05:44:00,64.1,63.2,29.98,North,32767,0.0,0.0,97,0.00,,,0.00,Wunderground v.1.15,2013-08-23 09:44:00,
2013-08-23 05:54:00,63.7,63.1,29.99,North,32767,0.0,0.0,98,0.00,,,0.00,Wunderground v.1.15,2013-08-23 09:54:00,
2013-08-23 05:59:00,63.5,62.6,29.99,North,32767,0.0,0.0,97,0.00,,,0.00,Wunderground v.1.15,2013-08-23 09:59:00,
2013-08-23 06:04:00,63.2,62.3,29.99,North,360,0.0,0.0,97,0.00,,,0.00,Wunderground v.1.15,2013-08-23 10:04:00,
2013-08-23 06:14:00,62.9,62.3,29.99,North,32767,0.0,0.0,98,0.00,,,0.00,Wunderground v.1.15,2013-08-23 10:14:00,
2013-08-23 06:24:00,62.7,62.1,29.99,North,32767,0.0,0.0,98,0.00,,,0.00,Wunderground v.1.15,2013-08-23 10:24:00,
2013-08-23 06:29:00,62.7,62.1,30.00,North,32767,0.0,0.0,98,0.00,,,0.00,Wunderground v.1.15,2013-08-23 10:29:00,
2013-08-23 06:34:00,62.8,62.2,30.00,North,360,0.0,0.0,98,0.00,,,0.00,Wunderground v.1.15,2013-08-23 10:34:00,
2013-08-23 06:39:00,62.8,62.2,30.00,North,32767,0.0,0.0,98,0.00,,,0.00,Wunderground v.1.15,2013-08-23 10:39:00,
2013-08-23 06:44:00,62.8,62.2,30.00,North,32767,0.0,0.0,98,0.00,,,0.00,Wunderground v.1.15,2013-08-23 10:44:00,
2013-08-23 06:49:00,62.8,62.2,30.00,North,32767,0.0,0.0,98,0.00,,,0.00,Wunderground v.1.15,2013-08-23 10:49:00,
2013-08-23 06:54:00,62.8,62.2,30.00,North,32767,0.0,0.0,98,0.00,,,0.00,Wunderground v.1.15,2013-08-23 10:54:00,
2013-08-23 07:05:00,62.8,62.5,30.00,North,360,0.0,0.0,99,0.00,,,0.00,Wunderground v.1.15,2013-08-23 11:05:00,
2013-08-23 07:14:00,62.9,62.6,30.00,North,32767,0.0,0.0,99,0.00,,,0.00,Wunderground v.1.15,2013-08-23 11:14:00,
2013-08-23 07:24:00,62.9,62.6,30.00,North,32767,0.0,0.0,99,0.00,,,0.00,Wunderground v.1.15,2013-08-23 11:24:00,
2013-08-23 07:29:00,62.9,62.6,30.00,North,32767,0.0,0.0,99,0.00,,,0.00,Wunderground v.1.15,2013-08-23 11:29:00,
2013-08-23 07:39:00,63.1,62.8,30.00,North,360,0.0,0.0,99,0.00,,,0.00,Wunderground v.1.15,2013-08-23 11:39:00,
2013-08-23 07:49:00,63.2,62.9,30.01,North,360,0.0,0.0,99,0.00,,,0.00,Wunderground v.1.15,2013-08-23 11:49:00,
2013-08-23 07:59:00,63.3,63.0,30.01,North,360,0.0,0.0,99,0.00,,,0.00,Wunderground v.1.15,2013-08-23 11:59:00,
2013-08-23 08:05:00,63.5,63.2,30.01,North,32767,0.0,0.0,99,0.00,,,0.00,Wunderground v.1.15,2013-08-23 12:05:00,
2013-08-23 08:14:00,63.6,63.3,30.02,North,32767,0.0,0.0,99,0.00,,,0.00,Wunderground v.1.15,2013-08-23 12:14:00,
2013-08-23 08:19:00,63.6,63.3,30.02,North,32767,0.0,0.0,99,0.00,,,0.00,Wunderground v.1.15,2013-08-23 12:19:00,
2013-08-23 08:24:00,63.6,63.6,30.02,North,360,0.0,0.0,100,0.00,,,0.00,Wunderground v.1.15,2013-08-23 12:24:00,
2013-08-23 08:34:00,63.9,63.9,30.02,North,360,0.0,0.0,100,0.00,,,0.00,Wunderground v.1.15,2013-08-23 12:34:00,
2013-08-23 08:39:00,64.1,64.1,30.02,North,360,0.0,0.0,100,0.00,,,0.00,Wunderground v.1.15,2013-08-23 12:39:00,
2013-08-23 08:44:00,64.2,64.2,30.02,North,360,0.0,0.0,100,0.00,,,0.00,Wunderground v.1.15,2013-08-23 12:44:00,
2013-08-23 08:49:00,64.2,64.2,30.01,North,360,0.0,0.0,100,0.00,,,0.00,Wunderground v.1.15,2013-08-23 12:49:00,
2013-08-23 08:59:00,64.4,64.4,30.01,North,32767,0.0,0.0,100,0.00,,,0.00,Wunderground v.1.15,2013-08-23 12:59:00,
2013-08-23 09:04:00,64.5,64.5,30.01,North,360,0.0,0.0,100,0.00,,,0.00,Wunderground v.1.15,2013-08-23 13:04:00,
2013-08-23 09:14:00,64.8,64.8,30.02,North,32767,0.0,0.0,100,0.00,,,0.00,Wunderground v.1.15,2013-08-23 13:14:00,
2013-08-23 09:19:00,64.9,64.9,30.01,North,360,0.0,0.0,100,0.00,,,0.00,Wunderground v.1.15,2013-08-23 13:19:00,
2013-08-23 09:29:00,65.8,65.8,30.01,North,360,0.0,0.0,100,0.00,,,0.00,Wunderground v.1.15,2013-08-23 13:29:00,
2013-08-23 09:39:00,66.6,66.6,30.01,North,32767,0.0,0.0,100,0.00,,,0.00,Wunderground v.1.15,2013-08-23 13:39:00,
2013-08-23 09:44:00,67.0,67.0,30.01,North,32767,0.0,0.0,100,0.00,,,0.00,Wunderground v.1.15,2013-08-23 13:44:00,
2013-08-23 09:49:00,67.2,67.2,30.01,North,32767,0.0,0.0,100,0.00,,,0.00,Wunderground v.1.15,2013-08-23 13:49:00,
2013-08-23 09:59:00,67.4,67.4,30.01,North,360,0.0,0.0,100,0.00,,,0.00,Wunderground v.1.15,2013-08-23 13:59:00,
2013-08-23 10:05:00,67.6,67.6,30.02,North,32767,0.0,0.0,100,0.00,,,0.00,Wunderground v.1.15,2013-08-23 14:05:00,
2013-08-23 10:14:00,68.1,68.1,30.02,North,32767,0.0,0.0,100,0.00,,,0.00,Wunderground v.1.15,2013-08-23 14:14:00,
2013-08-23 10:19:00,68.1,68.1,30.02,North,32767,0.0,0.0,100,0.00,,,0.00,Wunderground v.1.15,2013-08-23 14:19:00,
2013-08-23 10:29:00,68.0,68.0,30.03,North,32767,0.0,0.0,100,0.00,,,0.00,Wunderground v.1.15,2013-08-23 14:29:00,
2013-08-23 10:39:00,68.3,68.3,30.03,North,360,0.0,0.0,100,0.00,,,0.00,Wunderground v.1.15,2013-08-23 14:39:00,
2013-08-23 10:44:00,68.4,68.4,30.03,North,32767,0.0,0.0,100,0.00,,,0.00,Wunderground v.1.15,2013-08-23 14:44:00,
2013-08-23 10:54:00,69.9,69.9,30.02,North,32767,0.0,0.0,100,0.00,,,0.00,Wunderground v.1.15,2013-08-23 14:54:00,
2013-08-23 10:59:00,71.1,70.8,30.03,North,32767,0.0,0.0,99,0.00,,,0.00,Wunderground v.1.15,2013-08-23 14:59:00,
2013-08-23 11:04:00,72.2,71.3,30.03,North,32767,0.0,0.0,97,0.00,,,0.00,Wunderground v.1.15,2013-08-23 15:04:00,
2013-08-23 11:14:00,73.1,70.3,30.02,North,32767,0.0,0.0,91,0.00,,,0.00,Wunderground v.1.15,2013-08-23 15:14:00,
2013-08-23 11:24:00,74.9,73.1,30.02,North,32767,0.0,0.0,94,0.00,,,0.00,Wunderground v.1.15,2013-08-23 15:24:00,
2013-08-23 11:29:00,75.3,72.8,30.02,North,360,0.0,0.0,92,0.00,,,0.00,Wunderground v.1.15,2013-08-23 15:29:00,
2013-08-23 11:35:00,75.5,73.0,30.02,North,32767,0.0,0.0,92,0.00,,,0.00,Wunderground v.1.15,2013-08-23 15:35:00,
2013-08-23 11:44:00,75.3,70.8,30.02,North,360,0.0,0.0,86,0.00,,,0.00,Wunderground v.1.15,2013-08-23 15:44:00,
2013-08-23 11:49:00,75.3,72.8,30.02,North,32767,0.0,0.0,92,0.00,,,0.00,Wunderground v.1.15,2013-08-23 15:49:00,
2013-08-23 11:54:00,76.0,72.5,30.02,North,32767,0.0,0.0,89,0.00,,,0.00,Wunderground v.1.15,2013-08-23 15:54:00,
2013-08-23 11:59:00,75.4,71.6,30.02,North,32767,0.0,0.0,88,0.00,,,0.00,Wunderground v.1.15,2013-08-23 15:59:00,
2013-08-23 12:05:00,76.6,73.8,30.02,North,32767,0.0,0.0,91,0.00,,,0.00,Wunderground v.1.15,2013-08-23 16:05:00,
2013-08-23 12:14:00,77.6,72.4,30.01,North,360,0.0,0.0,84,0.00,,,0.00,Wunderground v.1.15,2013-08-23 16:14:00,
2013-08-23 12:24:00,77.4,73.2,30.01,North,360,0.0,0.0,87,0.00,,,0.00,Wunderground v.1.15,2013-08-23 16:24:00,
2013-08-23 12:34:00,77.3,73.1,30.01,North,360,0.0,0.0,87,0.00,,,0.00,Wunderground v.1.15,2013-08-23 16:34:00,
2013-08-23 12:39:00,77.5,73.3,30.01,North,32767,0.0,0.0,87,0.00,,,0.00,Wunderground v.1.15,2013-08-23 16:39:00,
2013-08-23 12:44:00,78.4,73.2,30.01,North,360,0.0,0.0,84,0.00,,,0.00,Wunderground v.1.15,2013-08-23 16:44:00,
2013-08-23 12:54:00,78.4,71.3,30.01,North,32767,0.0,0.0,79,0.00,,,0.00,Wunderground v.1.15,2013-08-23 16:54:00,
2013-08-23 12:59:00,77.7,73.9,30.01,North,32767,0.0,0.0,88,0.00,,,0.00,Wunderground v.1.15,2013-08-23 16:59:00,
2013-08-23 13:05:00,77.7,72.1,30.01,North,360,0.0,0.0,83,0.00,,,0.00,Wunderground v.1.15,2013-08-23 17:05:00,
2013-08-23 13:14:00,78.7,74.2,30.00,North,32767,0.0,0.0,86,0.00,,,0.00,Wunderground v.1.15,2013-08-23 17:14:00,
2013-08-23 13:24:00,78.7,72.0,30.00,North,32767,0.0,0.0,80,0.00,,,0.00,Wunderground v.1.15,2013-08-23 17:24:00,
2013-08-23 13:34:00,77.8,70.8,29.99,North,32767,0.0,0.0,79,0.00,,,0.00,Wunderground v.1.15,2013-08-23 17:34:00,
2013-08-23 13:44:00,78.5,72.2,29.99,North,32767,0.0,0.0,81,0.00,,,0.00,Wunderground v.1.15,2013-08-23 17:44:00,
2013-08-23 13:54:00,78.7,73.5,29.99,North,32767,0.0,0.0,84,0.00,,,0.00,Wunderground v.1.15,2013-08-23 17:54:00,
2013-08-23 13:59:00,79.4,73.1,29.98,North,32767,0.0,0.0,81,0.00,,,0.00,Wunderground v.1.15,2013-08-23 17:59:00,
2013-08-23 14:05:00,79.4,72.3,29.99,North,360,0.0,0.0,79,0.00,,,0.00,Wunderground v.1.15,2013-08-23 18:05:00,
2013-08-23 14:14:00,78.7,71.3,29.98,North,32767,0.0,0.0,78,0.00,,,0.00,Wunderground v.1.15,2013-08-23 18:14:00,
2013-08-23 14:19:00,78.7,72.7,29.99,North,32767,0.0,0.0,82,0.00,,,0.00,Wunderground v.1.15,2013-08-23 18:19:00,
2013-08-23 14:29:00,79.0,72.7,29.98,North,360,0.0,0.0,81,0.00,,,0.00,Wunderground v.1.15,2013-08-23 18:29:00,
2013-08-23 14:34:00,79.6,74.3,29.98,North,360,0.0,0.0,84,0.00,,,0.00,Wunderground v.1.15,2013-08-23 18:34:00,
2013-08-23 14:39:00,79.7,75.1,29.97,North,360,0.0,0.0,86,0.00,,,0.00,Wunderground v.1.15,2013-08-23 18:39:00,
2013-08-23 14:44:00,80.3,73.2,29.97,North,32767,0.0,0.0,79,0.00,,,0.00,Wunderground v.1.15,2013-08-23 18:44:00,
2013-08-23 14:54:00,78.7,72.7,29.96,North,360,0.0,0.0,82,0.00,,,0.00,Wunderground v.1.15,2013-08-23 18:54:00,
2013-08-23 15:05:00,78.4,71.7,29.96,North,32767,0.0,0.0,80,0.00,,,0.00,Wunderground v.1.15,2013-08-23 19:05:00,
2013-08-23 15:14:00,77.9,72.3,29.96,North,32767,0.0,0.0,83,0.00,,,0.00,Wunderground v.1.15,2013-08-23 19:14:00,
2013-08-23 15:19:00,78.4,71.3,29.96,North,32767,0.0,0.0,79,0.00,,,0.00,Wunderground v.1.15,2013-08-23 19:19:00,
2013-08-23 15:24:00,77.9,72.3,29.96,North,32767,0.0,0.0,83,0.00,,,0.00,Wunderground v.1.15,2013-08-23 19:24:00,
2013-08-23 15:34:00,78.4,72.8,29.95,North,360,0.0,0.0,83,0.00,,,0.00,Wunderground v.1.15,2013-08-23 19:34:00,
2013-08-23 15:39:00,78.7,72.4,29.95,North,360,0.0,0.0,81,0.00,,,0.00,Wunderground v.1.15,2013-08-23 19:39:00,
2013-08-23 15:44:00,78.6,72.3,29.95,North,32767,0.0,0.0,81,0.00,,,0.00,Wunderground v.1.15,2013-08-23 19:44:00,
2013-08-23 15:49:00,78.5,72.2,29.95,North,32767,0.0,0.0,81,0.00,,,0.00,Wunderground v.1.15,2013-08-23 19:49:00,
2013-08-23 15:54:00,78.4,71.3,29.95,North,32767,0.0,0.0,79,0.00,,,0.00,Wunderground v.1.15,2013-08-23 19:54:00,
2013-08-23 16:09:00,78.0,72.1,29.95,North,32767,0.0,0.0,82,0.00,,,0.00,Wunderground v.1.15,2013-08-23 20:09:00,
2013-08-23 16:14:00,77.9,72.3,29.95,North,32767,0.0,0.0,83,0.00,,,0.00,Wunderground v.1.15,2013-08-23 20:14:00,
2013-08-23 16:19:00,77.9,72.0,29.95,North,360,0.0,0.0,82,0.00,,,0.00,Wunderground v.1.15,2013-08-23 20:19:00,
2013-08-23 16:24:00,77.8,71.5,29.95,North,32767,0.0,0.0,81,0.00,,,0.00,Wunderground v.1.15,2013-08-23 20:24:00,
2013-08-23 16:29:00,77.7,71.0,29.95,North,32767,0.0,0.0,80,0.00,,,0.00,Wunderground v.1.15,2013-08-23 20:29:00,
2013-08-23 16:39:00,77.8,72.2,29.95,North,360,0.0,0.0,83,0.00,,,0.00,Wunderground v.1.15,2013-08-23 20:39:00,
2013-08-23 16:44:00,78.1,72.2,29.94,North,360,0.0,0.0,82,0.00,,,0.00,Wunderground v.1.15,2013-08-23 20:44:00,
2013-08-23 16:49:00,78.5,72.9,29.94,North,32767,0.0,0.0,83,0.00,,,0.00,Wunderground v.1.15,2013-08-23 20:49:00,
2013-08-23 16:59:00,78.6,72.6,29.94,North,32767,0.0,0.0,82,0.00,,,0.00,Wunderground v.1.15,2013-08-23 20:59:00,
2013-08-23 17:05:00,78.3,72.0,29.94,North,360,0.0,0.0,81,0.00,,,0.00,Wunderground v.1.15,2013-08-23 21:05:00,
2013-08-23 17:15:00,78.1,72.5,29.95,North,360,0.0,0.0,83,0.00,,,0.00,Wunderground v.1.15,2013-08-23 21:15:00,
2013-08-23 17:25:00,78.5,73.3,29.94,North,360,0.0,0.0,84,0.00,,,0.00,Wunderground v.1.15,2013-08-23 21:25:00,
2013-08-23 17:35:00,77.9,71.6,29.96,North,32767,0.0,0.0,81,0.00,,,0.00,Wunderground v.1.15,2013-08-23 21:35:00,
2013-08-23 17:40:00,77.4,70.7,29.96,North,360,0.0,0.0,80,0.00,,,0.00,Wunderground v.1.15,2013-08-23 21:40:00,
2013-08-23 17:50:00,76.3,70.4,29.96,North,32767,0.0,0.0,82,0.00,,,0.00,Wunderground v.1.15,2013-08-23 21:50:00,
2013-08-23 17:55:00,75.7,69.8,29.96,North,32767,0.0,0.0,82,0.00,,,0.00,Wunderground v.1.15,2013-08-23 21:55:00,
2013-08-23 18:00:00,75.2,69.7,29.96,North,32767,0.0,0.0,83,0.00,,,0.00,Wunderground v.1.15,2013-08-23 22:00:00,
2013-08-23 18:05:00,74.7,69.5,29.96,North,360,0.0,0.0,84,0.00,,,0.00,Wunderground v.1.15,2013-08-23 22:05:00,
2013-08-23 18:15:00,73.9,69.1,29.96,North,32767,0.0,0.0,85,0.00,,,0.00,Wunderground v.1.15,2013-08-23 22:15:00,
2013-08-23 18:20:00,73.6,68.5,29.96,North,32767,0.0,0.0,84,0.00,,,0.00,Wunderground v.1.15,2013-08-23 22:20:00,
2013-08-23 18:25:00,73.3,68.5,29.96,North,32767,0.0,0.0,85,0.00,,,0.00,Wunderground v.1.15,2013-08-23 22:25:00,
2013-08-23 18:30:00,73.0,68.6,29.96,North,360,0.0,0.0,86,0.00,,,0.00,Wunderground v.1.15,2013-08-23 22:30:00,
2013-08-23 18:35:00,72.7,67.9,29.96,North,360,0.0,0.0,85,0.00,,,0.00,Wunderground v.1.15,2013-08-23 22:35:00,
2013-08-23 18:45:00,72.3,68.2,29.96,North,360,0.0,0.0,87,0.00,,,0.00,Wunderground v.1.15,2013-08-23 22:45:00,
2013-08-23 18:50:00,72.1,68.0,29.96,North,360,0.0,0.0,87,0.00,,,0.00,Wunderground v.1.15,2013-08-23 22:50:00,
2013-08-23 18:55:00,71.9,68.2,29.97,North,32767,0.0,0.0,88,0.00,,,0.00,Wunderground v.1.15,2013-08-23 22:55:00,
2013-08-23 19:05:00,71.6,67.9,29.97,North,32767,0.0,0.0,88,0.00,,,0.00,Wunderground v.1.15,2013-08-23 23:05:00,
2013-08-23 19:15:00,71.3,67.6,29.97,North,32767,0.0,0.0,88,0.00,,,0.00,Wunderground v.1.15,2013-08-23 23:15:00,
2013-08-23 19:25:00,71.0,67.6,29.98,North,360,0.0,0.0,89,0.00,,,0.00,Wunderground v.1.15,2013-08-23 23:25:00,
2013-08-23 19:35:00,70.8,67.7,29.98,North,360,0.0,0.0,90,0.00,,,0.00,Wunderground v.1.15,2013-08-23 23:35:00,
2013-08-23 19:45:00,70.4,67.3,29.98,North,32767,0.0,0.0,90,0.00,,,0.00,Wunderground v.1.15,2013-08-23 23:45:00,
2013-08-23 19:55:00,69.9,66.8,29.98,North,32767,0.0,0.0,90,0.00,,,0.00,Wunderground v.1.15,2013-08-23 23:55:00,
2013-08-23 20:00:00,69.7,66.6,29.98,North,360,0.0,0.0,90,0.00,,,0.00,Wunderground v.1.15,2013-08-24 00:00:00,
2013-08-23 20:05:00,69.4,66.3,29.98,North,32767,0.0,0.0,90,0.00,,,0.00,Wunderground v.1.15,2013-08-24 00:05:00,
2013-08-23 20:15:00,69.0,65.9,29.99,North,32767,0.0,0.0,90,0.00,,,0.00,Wunderground v.1.15,2013-08-24 00:15:00,
2013-08-23 20:20:00,68.8,65.7,29.99,North,360,0.0,0.0,90,0.00,,,0.00,Wunderground v.1.15,2013-08-24 00:20:00,
2013-08-23 20:25:00,68.7,65.6,29.99,North,32767,0.0,0.0,90,0.00,,,0.00,Wunderground v.1.15,2013-08-24 00:25:00,
2013-08-23 20:30:00,68.6,65.5,30.00,North,32767,0.0,0.0,90,0.00,,,0.00,Wunderground v.1.15,2013-08-24 00:30:00,
2013-08-23 20:35:00,68.5,65.4,30.00,North,32767,0.0,0.0,90,0.00,,,0.00,Wunderground v.1.15,2013-08-24 00:35:00,
2013-08-23 20:45:00,68.4,65.4,30.00,North,32767,0.0,0.0,90,0.00,,,0.00,Wunderground v.1.15,2013-08-24 00:45:00,
2013-08-23 20:50:00,68.4,65.4,30.00,North,32767,0.0,0.0,90,0.00,,,0.00,Wunderground v.1.15,2013-08-24 00:50:00,
2013-08-23 21:00:00,68.4,65.4,30.00,North,360,0.0,0.0,90,0.00,,,0.00,Wunderground v.1.15,2013-08-24 01:00:00,
2013-08-23 21:05:00,68.3,65.3,30.01,North,32767,0.0,0.0,90,0.00,,,0.00,Wunderground v.1.15,2013-08-24 01:05:00,
2013-08-23 21:15:00,68.3,65.6,30.01,North,32767,0.0,0.0,91,0.00,,,0.00,Wunderground v.1.15,2013-08-24 01:15:00,
2013-08-23 21:25:00,68.2,65.8,30.01,North,360,0.0,0.0,92,0.00,,,0.00,Wunderground v.1.15,2013-08-24 01:25:00,
2013-08-23 21:35:00,68.1,66.0,30.01,North,360,0.0,0.0,93,0.00,,,0.00,Wunderground v.1.15,2013-08-24 01:35:00,
2013-08-23 21:40:00,68.0,65.9,30.01,North,360,0.0,0.0,93,0.00,,,0.00,Wunderground v.1.15,2013-08-24 01:40:00,
2013-08-23 21:45:00,68.0,66.2,30.01,North,32767,0.0,0.0,94,0.00,,,0.00,Wunderground v.1.15,2013-08-24 01:45:00,
2013-08-23 21:55:00,67.9,66.1,30.01,North,360,0.0,0.0,94,0.00,,,0.00,Wunderground v.1.15,2013-08-24 01:55:00,
2013-08-23 22:00:00,67.8,66.0,30.02,North,360,0.0,0.0,94,0.00,,,0.00,Wunderground v.1.15,2013-08-24 02:00:00,
2013-08-23 22:05:00,67.7,66.2,30.02,North,32767,0.0,0.0,95,0.00,,,0.00,Wunderground v.1.15,2013-08-24 02:05:00,
2013-08-23 22:15:00,67.5,66.0,30.02,North,32767,0.0,0.0,95,0.00,,,0.00,Wunderground v.1.15,2013-08-24 02:15:00,
2013-08-23 22:20:00,67.4,65.9,30.02,North,32767,0.0,0.0,95,0.00,,,0.00,Wunderground v.1.15,2013-08-24 02:20:00,
2013-08-23 22:25:00,67.3,65.8,30.02,North,32767,0.0,0.0,95,0.00,,,0.00,Wunderground v.1.15,2013-08-24 02:25:00,
2013-08-23 22:30:00,67.2,65.7,30.02,North,32767,0.0,0.0,95,0.00,,,0.00,Wunderground v.1.15,2013-08-24 02:30:00,
2013-08-23 22:35:00,67.0,65.5,30.02,North,360,0.0,0.0,95,0.00,,,0.00,Wunderground v.1.15,2013-08-24 02:35:00,
2013-08-23 22:40:00,66.9,65.4,30.02,North,32767,0.0,0.0,95,0.00,,,0.00,Wunderground v.1.15,2013-08-24 02:40:00,
2013-08-23 22:50:00,66.8,65.3,30.02,North,360,0.0,0.0,95,0.00,,,0.00,Wunderground v.1.15,2013-08-24 02:50:00,
2013-08-23 23:00:00,66.7,65.5,30.02,North,360,0.0,0.0,96,0.00,,,0.00,Wunderground v.1.15,2013-08-24 03:00:00,
2013-08-23 23:05:00,66.6,65.4,30.02,North,32767,0.0,0.0,96,0.00,,,0.00,Wunderground v.1.15,2013-08-24 03:05:00,
2013-08-23 23:15:00,66.5,65.6,30.02,North,360,0.0,0.0,97,0.00,,,0.00,Wunderground v.1.15,2013-08-24 03:15:00,
2013-08-23 23:25:00,66.4,65.5,30.03,North,360,0.0,0.0,97,0.00,,,0.00,Wunderground v.1.15,2013-08-24 03:25:00,
2013-08-23 23:30:00,66.3,65.4,30.03,North,360,0.0,0.0,97,0.00,,,0.00,Wunderground v.1.15,2013-08-24 03:30:00,
2013-08-23 23:40:00,66.1,65.2,30.03,North,32767,0.0,0.0,97,0.00,,,0.00,Wunderground v.1.15,2013-08-24 03:40:00,
2013-08-23 23:50:00,66.1,65.5,30.04,North,360,0.0,0.0,98,0.00,,,0.00,Wunderground v.1.15,2013-08-24 03:50:00,